Aviation Digital Data Service (ADDS)

Output produced by METARs form (2126 UTC 08 August 2020)
found at http://www.aviationweather.gov/metar/data/
 
METAR text: OMAA 082100Z 16004KT 120V220 CAVOK 36/24 Q0994 NOSIG
Conditions at: OMAA (ABU DHABI INTL , AE) observed 2100 UTC 08 August 2020
Temperature: 36.0°C (97°F)
Dewpoint: 24.0°C (75°F) [RH = 50%]
Pressure (altimeter): 29.35 inches Hg (994.0 mb)
Winds: from the SSE (160 degrees) at 5 MPH (4 knots; 2.1 m/s)
Visibility: 6 or more miles (10+ km)
Ceiling: ceiling and visibility are OK
Clouds: unknown
Weather: no significant weather observed at this time

METAR text: OMAA 082000Z 13004KT CAVOK 36/25 Q0994 NOSIG
Conditions at: OMAA (ABU DHABI INTL , AE) observed 2000 UTC 08 August 2020
Temperature: 36.0°C (97°F)
Dewpoint: 25.0°C (77°F) [RH = 53%]
Pressure (altimeter): 29.35 inches Hg (994.0 mb)
Winds: from the SE (130 degrees) at 5 MPH (4 knots; 2.1 m/s)
Visibility: 6 or more miles (10+ km)
Ceiling: ceiling and visibility are OK
Clouds: unknown
Weather: no significant weather observed at this time

METAR text: OMAA 081900Z 19002KT CAVOK 36/26 Q0995 NOSIG
Conditions at: OMAA (ABU DHABI INTL , AE) observed 1900 UTC 08 August 2020
Temperature: 36.0°C (97°F)
Dewpoint: 26.0°C (79°F) [RH = 57%]
Pressure (altimeter): 29.38 inches Hg (995.0 mb)
Winds: from the S (190 degrees) at 2 MPH (2 knots; 1.0 m/s)
Visibility: 6 or more miles (10+ km)
Ceiling: ceiling and visibility are OK
Clouds: unknown
Weather: no significant weather observed at this time

METAR text: OMAA 081800Z 35004KT 330V030 CAVOK 36/27 Q0995 NOSIG
Conditions at: OMAA (ABU DHABI INTL , AE) observed 1800 UTC 08 August 2020
Temperature: 36.0°C (97°F)
Dewpoint: 27.0°C (81°F) [RH = 60%]
Pressure (altimeter): 29.38 inches Hg (995.0 mb)
Winds: from the N (350 degrees) at 5 MPH (4 knots; 2.1 m/s)
Visibility: 6 or more miles (10+ km)
Ceiling: ceiling and visibility are OK
Clouds: unknown
Weather: no significant weather observed at this time

METAR text: OMAA 081700Z 33005KT CAVOK 36/26 Q0994 NOSIG
Conditions at: OMAA (ABU DHABI INTL , AE) observed 1700 UTC 08 August 2020
Temperature: 36.0°C (97°F)
Dewpoint: 26.0°C (79°F) [RH = 57%]
Pressure (altimeter): 29.35 inches Hg (994.0 mb)
Winds: from the NNW (330 degrees) at 6 MPH (5 knots; 2.6 m/s)
Visibility: 6 or more miles (10+ km)
Ceiling: ceiling and visibility are OK
Clouds: unknown
Weather: no significant weather observed at this time

METAR text: OMAA 081600Z 30004KT 260V350 CAVOK 36/24 Q0994 NOSIG
Conditions at: OMAA (ABU DHABI INTL , AE) observed 1600 UTC 08 August 2020
Temperature: 36.0°C (97°F)
Dewpoint: 24.0°C (75°F) [RH = 50%]
Pressure (altimeter): 29.35 inches Hg (994.0 mb)
Winds: from the WNW (300 degrees) at 5 MPH (4 knots; 2.1 m/s)
Visibility: 6 or more miles (10+ km)
Ceiling: ceiling and visibility are OK
Clouds: unknown
Weather: no significant weather observed at this time

METAR text: OMAA 081500Z 31007KT CAVOK 37/25 Q0994 NOSIG
Conditions at: OMAA (ABU DHABI INTL , AE) observed 1500 UTC 08 August 2020
Temperature: 37.0°C (99°F)
Dewpoint: 25.0°C (77°F) [RH = 50%]
Pressure (altimeter): 29.35 inches Hg (994.0 mb)
Winds: from the NW (310 degrees) at 8 MPH (7 knots; 3.6 m/s)
Visibility: 6 or more miles (10+ km)
Ceiling: ceiling and visibility are OK
Clouds: unknown
Weather: no significant weather observed at this time

METAR text: OMAA 081400Z 30009KT CAVOK 37/22 Q0993 NOSIG
Conditions at: OMAA (ABU DHABI INTL , AE) observed 1400 UTC 08 August 2020
Temperature: 37.0°C (99°F)
Dewpoint: 22.0°C (72°F) [RH = 42%]
Pressure (altimeter): 29.32 inches Hg (993.0 mb)
Winds: from the WNW (300 degrees) at 10 MPH (9 knots; 4.6 m/s)
Visibility: 6 or more miles (10+ km)
Ceiling: ceiling and visibility are OK
Clouds: unknown
Weather: no significant weather observed at this time

METAR text: OMAA 081300Z 31011KT CAVOK 38/21 Q0993 NOSIG
Conditions at: OMAA (ABU DHABI INTL , AE) observed 1300 UTC 08 August 2020
Temperature: 38.0°C (100°F)
Dewpoint: 21.0°C (70°F) [RH = 38%]
Pressure (altimeter): 29.32 inches Hg (993.0 mb)
Winds: from the NW (310 degrees) at 13 MPH (11 knots; 5.7 m/s)
Visibility: 6 or more miles (10+ km)
Ceiling: ceiling and visibility are OK
Clouds: unknown
Weather: no significant weather observed at this time

METAR text: OMAA 081200Z 30011KT CAVOK 40/16 Q0993 NOSIG
Conditions at: OMAA (ABU DHABI INTL , AE) observed 1200 UTC 08 August 2020
Temperature: 40.0°C (104°F)
Dewpoint: 16.0°C (61°F) [RH = 25%]
Pressure (altimeter): 29.32 inches Hg (993.0 mb)
Winds: from the WNW (300 degrees) at 13 MPH (11 knots; 5.7 m/s)
Visibility: 6 or more miles (10+ km)
Ceiling: ceiling and visibility are OK
Clouds: unknown
Weather: no significant weather observed at this time

METAR text: OMAA 081100Z 31011KT CAVOK 41/18 Q0993 NOSIG
Conditions at: OMAA (ABU DHABI INTL , AE) observed 1100 UTC 08 August 2020
Temperature: 41.0°C (106°F)
Dewpoint: 18.0°C (64°F) [RH = 27%]
Pressure (altimeter): 29.32 inches Hg (993.0 mb)
Winds: from the NW (310 degrees) at 13 MPH (11 knots; 5.7 m/s)
Visibility: 6 or more miles (10+ km)
Ceiling: ceiling and visibility are OK
Clouds: unknown
Weather: no significant weather observed at this time

METAR text: OMAA 081000Z 29013KT CAVOK 41/16 Q0993 NOSIG
Conditions at: OMAA (ABU DHABI INTL , AE) observed 1000 UTC 08 August 2020
Temperature: 41.0°C (106°F)
Dewpoint: 16.0°C (61°F) [RH = 23%]
Pressure (altimeter): 29.32 inches Hg (993.0 mb)
Winds: from the WNW (290 degrees) at 15 MPH (13 knots; 6.7 m/s)
Visibility: 6 or more miles (10+ km)
Ceiling: ceiling and visibility are OK
Clouds: unknown
Weather: no significant weather observed at this time

METAR text: OMAA 080900Z 29012KT CAVOK 41/17 Q0994 NOSIG
Conditions at: OMAA (ABU DHABI INTL , AE) observed 0900 UTC 08 August 2020
Temperature: 41.0°C (106°F)
Dewpoint: 17.0°C (63°F) [RH = 25%]
Pressure (altimeter): 29.35 inches Hg (994.0 mb)
Winds: from the WNW (290 degrees) at 14 MPH (12 knots; 6.2 m/s)
Visibility: 6 or more miles (10+ km)
Ceiling: ceiling and visibility are OK
Clouds: unknown
Weather: no significant weather observed at this time

METAR text: OMAA 080800Z 29010KT 250V320 CAVOK 40/19 Q0994 NOSIG
Conditions at: OMAA (ABU DHABI INTL , AE) observed 0800 UTC 08 August 2020
Temperature: 40.0°C (104°F)
Dewpoint: 19.0°C (66°F) [RH = 30%]
Pressure (altimeter): 29.35 inches Hg (994.0 mb)
Winds: from the WNW (290 degrees) at 12 MPH (10 knots; 5.1 m/s)
Visibility: 6 or more miles (10+ km)
Ceiling: ceiling and visibility are OK
Clouds: unknown
Weather: no significant weather observed at this time

METAR text: OMAA 080700Z 26008KT 220V290 CAVOK 39/20 Q0994 NOSIG
Conditions at: OMAA (ABU DHABI INTL , AE) observed 0700 UTC 08 August 2020
Temperature: 39.0°C (102°F)
Dewpoint: 20.0°C (68°F) [RH = 33%]
Pressure (altimeter): 29.35 inches Hg (994.0 mb)
Winds: from the W (260 degrees) at 9 MPH (8 knots; 4.1 m/s)
Visibility: 6 or more miles (10+ km)
Ceiling: ceiling and visibility are OK
Clouds: unknown
Weather: no significant weather observed at this time

METAR text: OMAA 080600Z 24006KT CAVOK 37/23 Q0995 NOSIG
Conditions at: OMAA (ABU DHABI INTL , AE) observed 0600 UTC 08 August 2020
Temperature: 37.0°C (99°F)
Dewpoint: 23.0°C (73°F) [RH = 45%]
Pressure (altimeter): 29.38 inches Hg (995.0 mb)
Winds: from the WSW (240 degrees) at 7 MPH (6 knots; 3.1 m/s)
Visibility: 6 or more miles (10+ km)
Ceiling: ceiling and visibility are OK
Clouds: unknown
Weather: no significant weather observed at this time

METAR text: OMAA 080500Z 23006KT 190V260 CAVOK 35/25 Q0994 NOSIG
Conditions at: OMAA (ABU DHABI INTL , AE) observed 0500 UTC 08 August 2020
Temperature: 35.0°C (95°F)
Dewpoint: 25.0°C (77°F) [RH = 56%]
Pressure (altimeter): 29.35 inches Hg (994.0 mb)
Winds: from the SW (230 degrees) at 7 MPH (6 knots; 3.1 m/s)
Visibility: 6 or more miles (10+ km)
Ceiling: ceiling and visibility are OK
Clouds: unknown
Weather: no significant weather observed at this time

METAR text: OMAA 080400Z 21007KT 190V250 CAVOK 33/27 Q0994 NOSIG
Conditions at: OMAA (ABU DHABI INTL , AE) observed 0400 UTC 08 August 2020
Temperature: 33.0°C (91°F)
Dewpoint: 27.0°C (81°F) [RH = 71%]
Pressure (altimeter): 29.35 inches Hg (994.0 mb)
Winds: from the SSW (210 degrees) at 8 MPH (7 knots; 3.6 m/s)
Visibility: 6 or more miles (10+ km)
Ceiling: ceiling and visibility are OK
Clouds: unknown
Weather: no significant weather observed at this time

METAR text: OMAA 080300Z 19005KT CAVOK 33/27 Q0994 NOSIG
Conditions at: OMAA (ABU DHABI INTL , AE) observed 0300 UTC 08 August 2020
Temperature: 33.0°C (91°F)
Dewpoint: 27.0°C (81°F) [RH = 71%]
Pressure (altimeter): 29.35 inches Hg (994.0 mb)
Winds: from the S (190 degrees) at 6 MPH (5 knots; 2.6 m/s)
Visibility: 6 or more miles (10+ km)
Ceiling: ceiling and visibility are OK
Clouds: unknown
Weather: no significant weather observed at this time

METAR text: OMAA 080200Z 21006KT 180V240 CAVOK 32/28 Q0994 NOSIG
Conditions at: OMAA (ABU DHABI INTL , AE) observed 0200 UTC 08 August 2020
Temperature: 32.0°C (90°F)
Dewpoint: 28.0°C (82°F) [RH = 80%]
Pressure (altimeter): 29.35 inches Hg (994.0 mb)
Winds: from the SSW (210 degrees) at 7 MPH (6 knots; 3.1 m/s)
Visibility: 6 or more miles (10+ km)
Ceiling: ceiling and visibility are OK
Clouds: unknown
Weather: no significant weather observed at this time

METAR text: OMAA 080100Z 18007KT CAVOK 33/28 Q0993 NOSIG
Conditions at: OMAA (ABU DHABI INTL , AE) observed 0100 UTC 08 August 2020
Temperature: 33.0°C (91°F)
Dewpoint: 28.0°C (82°F) [RH = 75%]
Pressure (altimeter): 29.32 inches Hg (993.0 mb)
Winds: from the S (180 degrees) at 8 MPH (7 knots; 3.6 m/s)
Visibility: 6 or more miles (10+ km)
Ceiling: ceiling and visibility are OK
Clouds: unknown
Weather: no significant weather observed at this time

METAR text: OMAA 080000Z 16009KT CAVOK 33/29 Q0993 NOSIG
Conditions at: OMAA (ABU DHABI INTL , AE) observed 0000 UTC 08 August 2020
Temperature: 33.0°C (91°F)
Dewpoint: 29.0°C (84°F) [RH = 80%]
Pressure (altimeter): 29.32 inches Hg (993.0 mb)
Winds: from the SSE (160 degrees) at 10 MPH (9 knots; 4.6 m/s)
Visibility: 6 or more miles (10+ km)
Ceiling: ceiling and visibility are OK
Clouds: unknown
Weather: no significant weather observed at this time

METAR text: OMAA 072300Z 19004KT CAVOK 34/29 Q0993 NOSIG
Conditions at: OMAA (ABU DHABI INTL , AE) observed 2300 UTC 07 August 2020
Temperature: 34.0°C (93°F)
Dewpoint: 29.0°C (84°F) [RH = 75%]
Pressure (altimeter): 29.32 inches Hg (993.0 mb)
Winds: from the S (190 degrees) at 5 MPH (4 knots; 2.1 m/s)
Visibility: 6 or more miles (10+ km)
Ceiling: ceiling and visibility are OK
Clouds: unknown
Weather: no significant weather observed at this time

METAR text: OMAA 072200Z 25004KT 220V280 CAVOK 34/29 Q0993 NOSIG
Conditions at: OMAA (ABU DHABI INTL , AE) observed 2200 UTC 07 August 2020
Temperature: 34.0°C (93°F)
Dewpoint: 29.0°C (84°F) [RH = 75%]
Pressure (altimeter): 29.32 inches Hg (993.0 mb)
Winds: from the WSW (250 degrees) at 5 MPH (4 knots; 2.1 m/s)
Visibility: 6 or more miles (10+ km)
Ceiling: ceiling and visibility are OK
Clouds: unknown
Weather: no significant weather observed at this time

METAR text: OMAA 072100Z 27005KT CAVOK 34/29 Q0994 NOSIG
Conditions at: OMAA (ABU DHABI INTL , AE) observed 2100 UTC 07 August 2020
Temperature: 34.0°C (93°F)
Dewpoint: 29.0°C (84°F) [RH = 75%]
Pressure (altimeter): 29.35 inches Hg (994.0 mb)
Winds: from the W (270 degrees) at 6 MPH (5 knots; 2.6 m/s)
Visibility: 6 or more miles (10+ km)
Ceiling: ceiling and visibility are OK
Clouds: unknown
Weather: no significant weather observed at this time

METAR text: OMAA 072000Z 29006KT CAVOK 34/29 Q0994 NOSIG
Conditions at: OMAA (ABU DHABI INTL , AE) observed 2000 UTC 07 August 2020
Temperature: 34.0°C (93°F)
Dewpoint: 29.0°C (84°F) [RH = 75%]
Pressure (altimeter): 29.35 inches Hg (994.0 mb)
Winds: from the WNW (290 degrees) at 7 MPH (6 knots; 3.1 m/s)
Visibility: 6 or more miles (10+ km)
Ceiling: ceiling and visibility are OK
Clouds: unknown
Weather: no significant weather observed at this time

METAR text: OMAA 071900Z 31007KT CAVOK 34/30 Q0994 NOSIG
Conditions at: OMAA (ABU DHABI INTL , AE) observed 1900 UTC 07 August 2020
Temperature: 34.0°C (93°F)
Dewpoint: 30.0°C (86°F) [RH = 80%]
Pressure (altimeter): 29.35 inches Hg (994.0 mb)
Winds: from the NW (310 degrees) at 8 MPH (7 knots; 3.6 m/s)
Visibility: 6 or more miles (10+ km)
Ceiling: ceiling and visibility are OK
Clouds: unknown
Weather: no significant weather observed at this time

METAR text: OMAA 071800Z 27008KT CAVOK 35/30 Q0994 NOSIG
Conditions at: OMAA (ABU DHABI INTL , AE) observed 1800 UTC 07 August 2020
Temperature: 35.0°C (95°F)
Dewpoint: 30.0°C (86°F) [RH = 75%]
Pressure (altimeter): 29.35 inches Hg (994.0 mb)
Winds: from the W (270 degrees) at 9 MPH (8 knots; 4.1 m/s)
Visibility: 6 or more miles (10+ km)
Ceiling: ceiling and visibility are OK
Clouds: unknown
Weather: no significant weather observed at this time

METAR text: OMAA 071700Z 27009KT CAVOK 35/30 Q0994 NOSIG
Conditions at: OMAA (ABU DHABI INTL , AE) observed 1700 UTC 07 August 2020
Temperature: 35.0°C (95°F)
Dewpoint: 30.0°C (86°F) [RH = 75%]
Pressure (altimeter): 29.35 inches Hg (994.0 mb)
Winds: from the W (270 degrees) at 10 MPH (9 knots; 4.6 m/s)
Visibility: 6 or more miles (10+ km)
Ceiling: ceiling and visibility are OK
Clouds: unknown
Weather: no significant weather observed at this time

METAR text: OMAA 071600Z 28010KT CAVOK 35/31 Q0993 NOSIG
Conditions at: OMAA (ABU DHABI INTL , AE) observed 1600 UTC 07 August 2020
Temperature: 35.0°C (95°F)
Dewpoint: 31.0°C (88°F) [RH = 80%]
Pressure (altimeter): 29.32 inches Hg (993.0 mb)
Winds: from the W (280 degrees) at 12 MPH (10 knots; 5.1 m/s)
Visibility: 6 or more miles (10+ km)
Ceiling: ceiling and visibility are OK
Clouds: unknown
Weather: no significant weather observed at this time

METAR text: OMAA 071500Z 30011KT CAVOK 36/30 Q0993 NOSIG
Conditions at: OMAA (ABU DHABI INTL , AE) observed 1500 UTC 07 August 2020
Temperature: 36.0°C (97°F)
Dewpoint: 30.0°C (86°F) [RH = 71%]
Pressure (altimeter): 29.32 inches Hg (993.0 mb)
Winds: from the WNW (300 degrees) at 13 MPH (11 knots; 5.7 m/s)
Visibility: 6 or more miles (10+ km)
Ceiling: ceiling and visibility are OK
Clouds: unknown
Weather: no significant weather observed at this time

METAR text: OMAA 071400Z 30013KT CAVOK 36/30 Q0993 NOSIG
Conditions at: OMAA (ABU DHABI INTL , AE) observed 1400 UTC 07 August 2020
Temperature: 36.0°C (97°F)
Dewpoint: 30.0°C (86°F) [RH = 71%]
Pressure (altimeter): 29.32 inches Hg (993.0 mb)
Winds: from the WNW (300 degrees) at 15 MPH (13 knots; 6.7 m/s)
Visibility: 6 or more miles (10+ km)
Ceiling: ceiling and visibility are OK
Clouds: unknown
Weather: no significant weather observed at this time

METAR text: OMAA 071300Z 30015KT CAVOK 37/28 Q0992 NOSIG
Conditions at: OMAA (ABU DHABI INTL , AE) observed 1300 UTC 07 August 2020
Temperature: 37.0°C (99°F)
Dewpoint: 28.0°C (82°F) [RH = 60%]
Pressure (altimeter): 29.29 inches Hg (992.0 mb)
Winds: from the WNW (300 degrees) at 17 MPH (15 knots; 7.7 m/s)
Visibility: 6 or more miles (10+ km)
Ceiling: ceiling and visibility are OK
Clouds: unknown
Weather: no significant weather observed at this time

METAR text: OMAA 071200Z 29015KT CAVOK 39/26 Q0992 NOSIG
Conditions at: OMAA (ABU DHABI INTL , AE) observed 1200 UTC 07 August 2020
Temperature: 39.0°C (102°F)
Dewpoint: 26.0°C (79°F) [RH = 48%]
Pressure (altimeter): 29.29 inches Hg (992.0 mb)
Winds: from the WNW (290 degrees) at 17 MPH (15 knots; 7.7 m/s)
Visibility: 6 or more miles (10+ km)
Ceiling: ceiling and visibility are OK
Clouds: unknown
Weather: no significant weather observed at this time

METAR text: OMAA 071100Z 30014KT 270V330 CAVOK 39/27 Q0993 NOSIG
Conditions at: OMAA (ABU DHABI INTL , AE) observed 1100 UTC 07 August 2020
Temperature: 39.0°C (102°F)
Dewpoint: 27.0°C (81°F) [RH = 51%]
Pressure (altimeter): 29.32 inches Hg (993.0 mb)
Winds: from the WNW (300 degrees) at 16 MPH (14 knots; 7.2 m/s)
Visibility: 6 or more miles (10+ km)
Ceiling: ceiling and visibility are OK
Clouds: unknown
Weather: no significant weather observed at this time

METAR text: OMAA 071000Z 30013KT CAVOK 40/26 Q0993 NOSIG
Conditions at: OMAA (ABU DHABI INTL , AE) observed 1000 UTC 07 August 2020
Temperature: 40.0°C (104°F)
Dewpoint: 26.0°C (79°F) [RH = 46%]
Pressure (altimeter): 29.32 inches Hg (993.0 mb)
Winds: from the WNW (300 degrees) at 15 MPH (13 knots; 6.7 m/s)
Visibility: 6 or more miles (10+ km)
Ceiling: ceiling and visibility are OK
Clouds: unknown
Weather: no significant weather observed at this time

Forecast for: OMAA (ABU DHABI INTL , AE)
Text: TAF OMAA 081700Z 0818/1000 29005KT CAVOK
Forecast period: 1800 UTC 08 August 2020 to 0000 UTC 10 August 2020
Forecast type: FROM: standard forecast or significant change
Winds: from the WNW (290 degrees) at 6 MPH (5 knots; 2.6 m/s)
Visibility: 6 or more miles (10+ km)
Ceiling: unknown
Clouds: missing
Weather: NSW  (no significant weather)
Text: BECMG 0818/0820 18006KT
Forecast period: 1800 UTC 08 August 2020 to 0400 UTC 09 August 2020
Forecast type: BECOMING: Conditions expected to become as follows by 2000 UTC 08 August 2020
Winds: from the S (180 degrees) at 7 MPH (6 knots; 3.1 m/s)
Visibility: 6 or more miles (10+ km)
Ceiling: unknown
Clouds: missing
Weather: NSW  (no significant weather)
Text: BECMG 0904/0906 32012KT
Forecast period: 0400 to 1800 UTC 09 August 2020
Forecast type: BECOMING: Conditions expected to become as follows by 0600 UTC 09 August 2020
Winds: from the NW (320 degrees) at 14 MPH (12 knots; 6.2 m/s)
Visibility: 6 or more miles (10+ km)
Ceiling: unknown
Clouds: missing
Weather: NSW  (no significant weather)
Text: BECMG 0918/0920 VRB02KT
Forecast period: 1800 UTC 09 August 2020 to 0000 UTC 10 August 2020
Forecast type: BECOMING: Conditions expected to become as follows by 2000 UTC 09 August 2020
Winds: variable direction winds at 2 MPH (2 knots; 1.0 m/s)
Visibility: 6 or more miles (10+ km)
Ceiling: unknown
Clouds: missing
Weather: NSW  (no significant weather)